sensor_id;sensor_type;location;lat;lon;timestamp;temperature;humidity
14016;DHT22;7083;48.854;9.158;2022-09-09T00:01:06;13.90;99.90
14016;DHT22;7083;48.854;9.158;2022-09-09T00:03:43;13.90;99.90
14016;DHT22;7083;48.854;9.158;2022-09-09T00:06:18;14.00;99.90
14016;DHT22;7083;48.854;9.158;2022-09-09T00:08:53;14.00;99.90
14016;DHT22;7083;48.854;9.158;2022-09-09T00:11:29;14.00;99.90
14016;DHT22;7083;48.854;9.158;2022-09-09T00:14:03;14.00;99.90
14016;DHT22;7083;48.854;9.158;2022-09-09T00:16:38;14.00;99.90
14016;DHT22;7083;48.854;9.158;2022-09-09T00:19:14;14.00;99.90
14016;DHT22;7083;48.854;9.158;2022-09-09T00:21:48;14.10;99.90
14016;DHT22;7083;48.854;9.158;2022-09-09T00:24:26;14.10;99.90
14016;DHT22;7083;48.854;9.158;2022-09-09T00:26:57;14.10;99.90
14016;DHT22;7083;48.854;9.158;2022-09-09T00:29:33;14.10;99.90
14016;DHT22;7083;48.854;9.158;2022-09-09T00:32:11;14.10;99.90
14016;DHT22;7083;48.854;9.158;2022-09-09T00:34:47;14.10;99.90
14016;DHT22;7083;48.854;9.158;2022-09-09T00:37:13;14.10;99.90
14016;DHT22;7083;48.854;9.158;2022-09-09T00:39:42;14.10;99.90
14016;DHT22;7083;48.854;9.158;2022-09-09T00:42:15;14.10;99.90
14016;DHT22;7083;48.854;9.158;2022-09-09T00:44:52;14.10;99.90
14016;DHT22;7083;48.854;9.158;2022-09-09T00:47:39;14.10;99.90
14016;DHT22;7083;48.854;9.158;2022-09-09T00:50:23;14.10;99.90
14016;DHT22;7083;48.854;9.158;2022-09-09T00:53:02;14.10;99.90
14016;DHT22;7083;48.854;9.158;2022-09-09T00:55:40;14.20;99.90
14016;DHT22;7083;48.854;9.158;2022-09-09T00:58:09;14.20;99.90
14016;DHT22;7083;48.854;9.158;2022-09-09T01:00:42;14.30;99.90
14016;DHT22;7083;48.854;9.158;2022-09-09T01:03:21;14.30;99.90
14016;DHT22;7083;48.854;9.158;2022-09-09T01:06:00;14.30;99.90
14016;DHT22;7083;48.854;9.158;2022-09-09T01:08:48;14.40;99.90
14016;DHT22;7083;48.854;9.158;2022-09-09T01:11:22;14.40;99.90
14016;DHT22;7083;48.854;9.158;2022-09-09T01:13:55;14.40;99.90
14016;DHT22;7083;48.854;9.158;2022-09-09T01:16:24;14.40;99.90
14016;DHT22;7083;48.854;9.158;2022-09-09T01:18:52;14.40;99.90
14016;DHT22;7083;48.854;9.158;2022-09-09T01:21:26;14.40;99.90
14016;DHT22;7083;48.854;9.158;2022-09-09T01:24:15;14.50;99.90
14016;DHT22;7083;48.854;9.158;2022-09-09T01:26:48;14.50;99.90
14016;DHT22;7083;48.854;9.158;2022-09-09T01:29:18;14.50;99.90
14016;DHT22;7083;48.854;9.158;2022-09-09T01:31:53;14.50;99.90
14016;DHT22;7083;48.854;9.158;2022-09-09T01:34:23;14.40;99.90
14016;DHT22;7083;48.854;9.158;2022-09-09T01:36:53;14.50;99.90
14016;DHT22;7083;48.854;9.158;2022-09-09T01:39:22;14.50;99.90
14016;DHT22;7083;48.854;9.158;2022-09-09T01:41:51;14.50;99.90
14016;DHT22;7083;48.854;9.158;2022-09-09T01:44:19;14.50;99.90
14016;DHT22;7083;48.854;9.158;2022-09-09T01:46:46;14.50;99.90
14016;DHT22;7083;48.854;9.158;2022-09-09T01:49:13;14.50;99.90
14016;DHT22;7083;48.854;9.158;2022-09-09T01:51:40;14.50;99.90
14016;DHT22;7083;48.854;9.158;2022-09-09T01:54:08;14.50;99.90
14016;DHT22;7083;48.854;9.158;2022-09-09T01:56:40;14.50;99.90
14016;DHT22;7083;48.854;9.158;2022-09-09T01:59:44;14.60;99.90
14016;DHT22;7083;48.854;9.158;2022-09-09T02:02:17;14.50;99.90
14016;DHT22;7083;48.854;9.158;2022-09-09T02:04:47;14.50;99.90
14016;DHT22;7083;48.854;9.158;2022-09-09T02:07:35;14.50;99.90
14016;DHT22;7083;48.854;9.158;2022-09-09T02:10:10;14.50;99.90
14016;DHT22;7083;48.854;9.158;2022-09-09T02:12:40;14.40;99.90
14016;DHT22;7083;48.854;9.158;2022-09-09T02:15:18;14.40;99.90
14016;DHT22;7083;48.854;9.158;2022-09-09T02:17:49;14.30;99.90
14016;DHT22;7083;48.854;9.158;2022-09-09T02:20:18;14.30;99.90
14016;DHT22;7083;48.854;9.158;2022-09-09T02:22:47;14.20;99.90
14016;DHT22;7083;48.854;9.158;2022-09-09T02:25:18;14.20;99.90
14016;DHT22;7083;48.854;9.158;2022-09-09T02:27:47;14.20;99.90
14016;DHT22;7083;48.854;9.158;2022-09-09T02:30:17;14.30;99.90
14016;DHT22;7083;48.854;9.158;2022-09-09T02:32:46;14.50;99.90
14016;DHT22;7083;48.854;9.158;2022-09-09T02:35:15;14.60;99.90
14016;DHT22;7083;48.854;9.158;2022-09-09T02:37:44;14.70;99.90
14016;DHT22;7083;48.854;9.158;2022-09-09T02:40:13;14.80;99.90
14016;DHT22;7083;48.854;9.158;2022-09-09T02:42:42;14.80;99.90
14016;DHT22;7083;48.854;9.158;2022-09-09T02:45:11;14.80;99.90
14016;DHT22;7083;48.854;9.158;2022-09-09T02:47:42;14.80;99.90
14016;DHT22;7083;48.854;9.158;2022-09-09T02:50:13;14.80;99.90
14016;DHT22;7083;48.854;9.158;2022-09-09T02:52:54;14.80;99.90
14016;DHT22;7083;48.854;9.158;2022-09-09T02:55:30;14.80;99.90
14016;DHT22;7083;48.854;9.158;2022-09-09T02:58:03;14.80;99.90
14016;DHT22;7083;48.854;9.158;2022-09-09T03:00:31;14.80;99.90
14016;DHT22;7083;48.854;9.158;2022-09-09T03:03:00;14.80;99.90
14016;DHT22;7083;48.854;9.158;2022-09-09T03:05:26;14.80;99.90
14016;DHT22;7083;48.854;9.158;2022-09-09T03:07:53;14.70;99.90
14016;DHT22;7083;48.854;9.158;2022-09-09T03:10:20;14.70;99.90
14016;DHT22;7083;48.854;9.158;2022-09-09T03:12:47;14.70;99.90
14016;DHT22;7083;48.854;9.158;2022-09-09T03:15:13;14.60;99.90
14016;DHT22;7083;48.854;9.158;2022-09-09T03:17:40;14.60;99.90
14016;DHT22;7083;48.854;9.158;2022-09-09T03:20:09;14.60;99.90
14016;DHT22;7083;48.854;9.158;2022-09-09T03:22:36;14.50;99.90
14016;DHT22;7083;48.854;9.158;2022-09-09T03:25:03;14.50;99.90
14016;DHT22;7083;48.854;9.158;2022-09-09T03:27:31;14.40;99.90
14016;DHT22;7083;48.854;9.158;2022-09-09T03:29:58;14.40;99.90
14016;DHT22;7083;48.854;9.158;2022-09-09T03:32:25;14.40;99.90
14016;DHT22;7083;48.854;9.158;2022-09-09T03:34:52;14.30;99.90
14016;DHT22;7083;48.854;9.158;2022-09-09T03:37:20;14.30;99.90
14016;DHT22;7083;48.854;9.158;2022-09-09T03:39:48;14.20;99.90
14016;DHT22;7083;48.854;9.158;2022-09-09T03:42:15;14.20;99.90
14016;DHT22;7083;48.854;9.158;2022-09-09T03:44:44;14.10;99.90
14016;DHT22;7083;48.854;9.158;2022-09-09T03:47:16;14.10;99.90
14016;DHT22;7083;48.854;9.158;2022-09-09T03:49:42;14.10;99.90
14016;DHT22;7083;48.854;9.158;2022-09-09T03:52:10;14.10;99.90
14016;DHT22;7083;48.854;9.158;2022-09-09T03:54:38;14.10;99.90
14016;DHT22;7083;48.854;9.158;2022-09-09T03:57:04;14.10;99.90
14016;DHT22;7083;48.854;9.158;2022-09-09T03:59:31;14.10;99.90
14016;DHT22;7083;48.854;9.158;2022-09-09T04:01:58;14.10;99.90
14016;DHT22;7083;48.854;9.158;2022-09-09T04:04:25;14.10;99.90
14016;DHT22;7083;48.854;9.158;2022-09-09T04:06:52;14.10;99.90
14016;DHT22;7083;48.854;9.158;2022-09-09T04:09:19;14.10;99.90
14016;DHT22;7083;48.854;9.158;2022-09-09T04:11:47;14.20;99.90
14016;DHT22;7083;48.854;9.158;2022-09-09T04:14:15;14.20;99.90
14016;DHT22;7083;48.854;9.158;2022-09-09T04:16:41;14.20;99.90
14016;DHT22;7083;48.854;9.158;2022-09-09T04:19:09;14.20;99.90
14016;DHT22;7083;48.854;9.158;2022-09-09T04:21:38;14.20;99.90
14016;DHT22;7083;48.854;9.158;2022-09-09T04:24:06;14.20;99.90
14016;DHT22;7083;48.854;9.158;2022-09-09T04:26:33;14.20;99.90
14016;DHT22;7083;48.854;9.158;2022-09-09T04:29:01;14.20;99.90
14016;DHT22;7083;48.854;9.158;2022-09-09T04:31:27;14.30;99.90
14016;DHT22;7083;48.854;9.158;2022-09-09T04:33:54;14.30;99.90
14016;DHT22;7083;48.854;9.158;2022-09-09T04:36:21;14.30;99.90
14016;DHT22;7083;48.854;9.158;2022-09-09T04:38:48;14.30;99.90
14016;DHT22;7083;48.854;9.158;2022-09-09T04:41:15;14.30;99.90
14016;DHT22;7083;48.854;9.158;2022-09-09T04:43:42;14.40;99.90
14016;DHT22;7083;48.854;9.158;2022-09-09T04:46:11;14.40;99.90
14016;DHT22;7083;48.854;9.158;2022-09-09T04:48:38;14.40;99.90
14016;DHT22;7083;48.854;9.158;2022-09-09T04:51:06;14.40;99.90
14016;DHT22;7083;48.854;9.158;2022-09-09T04:53:34;14.40;99.90
14016;DHT22;7083;48.854;9.158;2022-09-09T04:56:02;14.40;99.90
14016;DHT22;7083;48.854;9.158;2022-09-09T04:58:28;14.40;99.90
14016;DHT22;7083;48.854;9.158;2022-09-09T05:01:03;14.40;99.90
14016;DHT22;7083;48.854;9.158;2022-09-09T05:03:31;14.40;99.90
14016;DHT22;7083;48.854;9.158;2022-09-09T05:06:03;14.30;99.90
14016;DHT22;7083;48.854;9.158;2022-09-09T05:08:30;14.30;99.90
14016;DHT22;7083;48.854;9.158;2022-09-09T05:10:56;14.30;99.90
14016;DHT22;7083;48.854;9.158;2022-09-09T05:13:24;14.30;99.90
14016;DHT22;7083;48.854;9.158;2022-09-09T05:15:51;14.30;99.90
14016;DHT22;7083;48.854;9.158;2022-09-09T05:18:19;14.40;99.90
14016;DHT22;7083;48.854;9.158;2022-09-09T05:20:48;14.40;99.90
14016;DHT22;7083;48.854;9.158;2022-09-09T05:23:16;14.50;99.90
14016;DHT22;7083;48.854;9.158;2022-09-09T05:25:43;14.50;99.90
14016;DHT22;7083;48.854;9.158;2022-09-09T05:28:12;14.50;99.90
14016;DHT22;7083;48.854;9.158;2022-09-09T05:30:38;14.60;99.90
14016;DHT22;7083;48.854;9.158;2022-09-09T05:33:05;14.60;99.90
14016;DHT22;7083;48.854;9.158;2022-09-09T05:35:32;14.60;99.90
14016;DHT22;7083;48.854;9.158;2022-09-09T05:38:01;14.60;99.90
14016;DHT22;7083;48.854;9.158;2022-09-09T05:40:27;14.70;99.90
14016;DHT22;7083;48.854;9.158;2022-09-09T05:42:54;14.70;99.90
14016;DHT22;7083;48.854;9.158;2022-09-09T05:45:21;14.70;99.90
14016;DHT22;7083;48.854;9.158;2022-09-09T05:47:51;14.80;99.90
14016;DHT22;7083;48.854;9.158;2022-09-09T05:50:18;14.80;99.90
14016;DHT22;7083;48.854;9.158;2022-09-09T05:52:45;14.80;99.90
14016;DHT22;7083;48.854;9.158;2022-09-09T05:55:14;14.90;99.90
14016;DHT22;7083;48.854;9.158;2022-09-09T05:57:41;14.90;99.90
14016;DHT22;7083;48.854;9.158;2022-09-09T06:00:09;15.00;99.90
14016;DHT22;7083;48.854;9.158;2022-09-09T06:02:37;15.00;99.90
14016;DHT22;7083;48.854;9.158;2022-09-09T06:05:05;15.10;99.90
14016;DHT22;7083;48.854;9.158;2022-09-09T06:07:32;15.10;99.90
14016;DHT22;7083;48.854;9.158;2022-09-09T06:09:58;15.20;99.90
14016;DHT22;7083;48.854;9.158;2022-09-09T06:12:26;15.30;99.90
14016;DHT22;7083;48.854;9.158;2022-09-09T06:14:53;15.40;99.90
14016;DHT22;7083;48.854;9.158;2022-09-09T06:17:20;15.50;99.90
14016;DHT22;7083;48.854;9.158;2022-09-09T06:19:46;15.60;99.90
14016;DHT22;7083;48.854;9.158;2022-09-09T06:22:13;15.70;99.90
14016;DHT22;7083;48.854;9.158;2022-09-09T06:24:40;15.80;99.90
14016;DHT22;7083;48.854;9.158;2022-09-09T06:27:06;15.80;99.90
14016;DHT22;7083;48.854;9.158;2022-09-09T06:29:34;16.00;99.90
14016;DHT22;7083;48.854;9.158;2022-09-09T06:32:02;16.10;99.90
14016;DHT22;7083;48.854;9.158;2022-09-09T06:34:29;16.10;99.90
14016;DHT22;7083;48.854;9.158;2022-09-09T06:36:56;16.20;99.90
14016;DHT22;7083;48.854;9.158;2022-09-09T06:39:23;16.30;99.90
14016;DHT22;7083;48.854;9.158;2022-09-09T06:41:51;16.30;99.90
14016;DHT22;7083;48.854;9.158;2022-09-09T06:44:18;16.40;99.90
14016;DHT22;7083;48.854;9.158;2022-09-09T06:46:46;16.40;99.90
14016;DHT22;7083;48.854;9.158;2022-09-09T06:49:13;16.50;99.90
14016;DHT22;7083;48.854;9.158;2022-09-09T06:51:40;16.50;99.90
14016;DHT22;7083;48.854;9.158;2022-09-09T06:54:08;16.60;99.90
14016;DHT22;7083;48.854;9.158;2022-09-09T06:56:36;16.70;99.90
14016;DHT22;7083;48.854;9.158;2022-09-09T06:59:06;16.80;99.90
14016;DHT22;7083;48.854;9.158;2022-09-09T07:01:38;16.90;99.90
14016;DHT22;7083;48.854;9.158;2022-09-09T07:04:07;17.00;99.90
14016;DHT22;7083;48.854;9.158;2022-09-09T07:06:37;17.00;99.90
14016;DHT22;7083;48.854;9.158;2022-09-09T07:09:06;17.10;99.90
14016;DHT22;7083;48.854;9.158;2022-09-09T07:11:38;17.20;99.90
14016;DHT22;7083;48.854;9.158;2022-09-09T07:14:06;17.30;99.90
14016;DHT22;7083;48.854;9.158;2022-09-09T07:16:34;17.30;99.90
14016;DHT22;7083;48.854;9.158;2022-09-09T07:19:03;17.30;99.90
14016;DHT22;7083;48.854;9.158;2022-09-09T07:21:32;18.00;99.90
14016;DHT22;7083;48.854;9.158;2022-09-09T07:23:59;17.50;99.90
14016;DHT22;7083;48.854;9.158;2022-09-09T07:26:29;17.50;99.90
14016;DHT22;7083;48.854;9.158;2022-09-09T07:28:56;17.60;99.90
14016;DHT22;7083;48.854;9.158;2022-09-09T07:31:24;17.60;99.90
14016;DHT22;7083;48.854;9.158;2022-09-09T07:33:51;17.70;99.90
14016;DHT22;7083;48.854;9.158;2022-09-09T07:36:20;17.80;99.70
14016;DHT22;7083;48.854;9.158;2022-09-09T07:38:50;17.90;99.20
14016;DHT22;7083;48.854;9.158;2022-09-09T07:41:19;18.00;98.90
14016;DHT22;7083;48.854;9.158;2022-09-09T07:43:47;18.10;98.20
14016;DHT22;7083;48.854;9.158;2022-09-09T07:46:16;18.20;98.50
14016;DHT22;7083;48.854;9.158;2022-09-09T07:48:44;18.20;97.20
14016;DHT22;7083;48.854;9.158;2022-09-09T07:51:12;18.40;97.80
14016;DHT22;7083;48.854;9.158;2022-09-09T07:53:42;18.30;96.80
14016;DHT22;7083;48.854;9.158;2022-09-09T07:56:12;18.20;96.60
14016;DHT22;7083;48.854;9.158;2022-09-09T07:58:40;18.10;97.20
14016;DHT22;7083;48.854;9.158;2022-09-09T08:01:09;18.20;97.90
14016;DHT22;7083;48.854;9.158;2022-09-09T08:03:36;18.10;97.70
14016;DHT22;7083;48.854;9.158;2022-09-09T08:06:03;18.90;98.90
14016;DHT22;7083;48.854;9.158;2022-09-09T08:08:31;18.30;98.30
14016;DHT22;7083;48.854;9.158;2022-09-09T08:11:02;18.30;97.50
14016;DHT22;7083;48.854;9.158;2022-09-09T08:13:31;18.30;96.50
14016;DHT22;7083;48.854;9.158;2022-09-09T08:16:04;18.30;96.70
14016;DHT22;7083;48.854;9.158;2022-09-09T08:18:31;18.30;96.70
14016;DHT22;7083;48.854;9.158;2022-09-09T08:21:05;18.20;96.50
14016;DHT22;7083;48.854;9.158;2022-09-09T08:23:32;18.30;97.70
14016;DHT22;7083;48.854;9.158;2022-09-09T08:26:03;18.30;96.70
14016;DHT22;7083;48.854;9.158;2022-09-09T08:28:32;18.40;96.20
14016;DHT22;7083;48.854;9.158;2022-09-09T08:31:05;18.60;95.10
14016;DHT22;7083;48.854;9.158;2022-09-09T08:33:33;18.70;95.10
14016;DHT22;7083;48.854;9.158;2022-09-09T08:35:59;18.80;94.60
14016;DHT22;7083;48.854;9.158;2022-09-09T08:38:26;18.90;94.30
14016;DHT22;7083;48.854;9.158;2022-09-09T08:41:00;19.00;94.60
14016;DHT22;7083;48.854;9.158;2022-09-09T08:43:31;18.90;94.60
14016;DHT22;7083;48.854;9.158;2022-09-09T08:46:04;18.90;94.70
14016;DHT22;7083;48.854;9.158;2022-09-09T08:48:52;19.00;94.10
14016;DHT22;7083;48.854;9.158;2022-09-09T08:51:24;19.00;94.40
14016;DHT22;7083;48.854;9.158;2022-09-09T08:53:52;19.10;95.70
14016;DHT22;7083;48.854;9.158;2022-09-09T08:56:23;19.10;95.30
14016;DHT22;7083;48.854;9.158;2022-09-09T08:58:53;19.20;95.30
14016;DHT22;7083;48.854;9.158;2022-09-09T09:01:35;19.30;95.10
14016;DHT22;7083;48.854;9.158;2022-09-09T09:04:10;19.40;94.80
14016;DHT22;7083;48.854;9.158;2022-09-09T09:06:50;19.60;90.70
14016;DHT22;7083;48.854;9.158;2022-09-09T09:09:26;19.60;89.10
14016;DHT22;7083;48.854;9.158;2022-09-09T09:11:57;19.80;89.70
14016;DHT22;7083;48.854;9.158;2022-09-09T09:14:28;20.20;88.60
14016;DHT22;7083;48.854;9.158;2022-09-09T09:16:58;20.40;83.80
14016;DHT22;7083;48.854;9.158;2022-09-09T09:19:26;20.50;86.60
14016;DHT22;7083;48.854;9.158;2022-09-09T09:21:59;20.50;87.70
14016;DHT22;7083;48.854;9.158;2022-09-09T09:24:36;20.40;85.80
14016;DHT22;7083;48.854;9.158;2022-09-09T09:27:11;20.40;84.30
14016;DHT22;7083;48.854;9.158;2022-09-09T09:29:42;20.40;85.10
14016;DHT22;7083;48.854;9.158;2022-09-09T09:32:14;20.30;85.60
14016;DHT22;7083;48.854;9.158;2022-09-09T09:34:48;20.10;86.20
14016;DHT22;7083;48.854;9.158;2022-09-09T09:37:17;20.00;85.90
14016;DHT22;7083;48.854;9.158;2022-09-09T09:39:46;19.80;85.80
14016;DHT22;7083;48.854;9.158;2022-09-09T09:42:16;19.70;87.80
14016;DHT22;7083;48.854;9.158;2022-09-09T09:44:45;19.70;89.10
14016;DHT22;7083;48.854;9.158;2022-09-09T09:47:14;19.80;90.00
14016;DHT22;7083;48.854;9.158;2022-09-09T09:49:51;19.80;90.60
14016;DHT22;7083;48.854;9.158;2022-09-09T09:52:22;19.90;91.20
14016;DHT22;7083;48.854;9.158;2022-09-09T09:54:49;20.00;91.00
14016;DHT22;7083;48.854;9.158;2022-09-09T09:57:16;20.00;89.40
14016;DHT22;7083;48.854;9.158;2022-09-09T09:59:45;20.00;88.60
14016;DHT22;7083;48.854;9.158;2022-09-09T10:02:15;20.00;87.00
14016;DHT22;7083;48.854;9.158;2022-09-09T10:04:42;20.00;83.70
14016;DHT22;7083;48.854;9.158;2022-09-09T10:07:11;20.10;84.20
14016;DHT22;7083;48.854;9.158;2022-09-09T10:09:38;20.20;84.80
14016;DHT22;7083;48.854;9.158;2022-09-09T10:12:15;20.20;83.80
14016;DHT22;7083;48.854;9.158;2022-09-09T10:14:54;20.20;83.10
14016;DHT22;7083;48.854;9.158;2022-09-09T10:17:27;20.10;83.20
14016;DHT22;7083;48.854;9.158;2022-09-09T10:20:12;20.10;83.60
14016;DHT22;7083;48.854;9.158;2022-09-09T10:22:44;20.40;82.70
14016;DHT22;7083;48.854;9.158;2022-09-09T10:25:22;20.50;82.00
14016;DHT22;7083;48.854;9.158;2022-09-09T10:31:03;20.60;81.30
14016;DHT22;7083;48.854;9.158;2022-09-09T10:33:39;20.80;81.70
14016;DHT22;7083;48.854;9.158;2022-09-09T10:36:13;20.80;81.00
14016;DHT22;7083;48.854;9.158;2022-09-09T10:38:41;21.10;81.90
14016;DHT22;7083;48.854;9.158;2022-09-09T10:41:16;21.30;79.10
14016;DHT22;7083;48.854;9.158;2022-09-09T10:44:14;21.70;77.10
14016;DHT22;7083;48.854;9.158;2022-09-09T10:46:51;21.90;77.10
14016;DHT22;7083;48.854;9.158;2022-09-09T10:49:31;22.20;75.60
14016;DHT22;7083;48.854;9.158;2022-09-09T10:52:04;22.40;75.50
14016;DHT22;7083;48.854;9.158;2022-09-09T10:54:46;22.40;75.60
14016;DHT22;7083;48.854;9.158;2022-09-09T10:57:26;22.30;74.80
14016;DHT22;7083;48.854;9.158;2022-09-09T10:59:57;22.20;75.30
14016;DHT22;7083;48.854;9.158;2022-09-09T11:02:27;22.20;75.50
14016;DHT22;7083;48.854;9.158;2022-09-09T11:04:57;22.00;76.70
14016;DHT22;7083;48.854;9.158;2022-09-09T11:07:33;21.50;76.60
14016;DHT22;7083;48.854;9.158;2022-09-09T11:10:03;21.10;77.80
14016;DHT22;7083;48.854;9.158;2022-09-09T11:12:34;20.90;80.10
14016;DHT22;7083;48.854;9.158;2022-09-09T11:15:06;20.60;81.90
14016;DHT22;7083;48.854;9.158;2022-09-09T11:17:42;20.10;83.00
14016;DHT22;7083;48.854;9.158;2022-09-09T11:20:13;19.20;90.80
14016;DHT22;7083;48.854;9.158;2022-09-09T11:22:44;18.10;94.10
14016;DHT22;7083;48.854;9.158;2022-09-09T11:25:16;17.10;99.90
14016;DHT22;7083;48.854;9.158;2022-09-09T11:27:54;16.50;99.90
14016;DHT22;7083;48.854;9.158;2022-09-09T11:30:25;16.10;99.90
14016;DHT22;7083;48.854;9.158;2022-09-09T11:33:41;15.90;99.90
14016;DHT22;7083;48.854;9.158;2022-09-09T11:36:32;15.80;99.90
14016;DHT22;7083;48.854;9.158;2022-09-09T11:39:16;15.80;99.90
14016;DHT22;7083;48.854;9.158;2022-09-09T11:41:49;15.80;99.90
14016;DHT22;7083;48.854;9.158;2022-09-09T11:44:23;15.80;99.90
14016;DHT22;7083;48.854;9.158;2022-09-09T11:46:53;15.70;99.90
14016;DHT22;7083;48.854;9.158;2022-09-09T11:49:29;15.70;99.90
14016;DHT22;7083;48.854;9.158;2022-09-09T11:52:18;15.70;99.90
14016;DHT22;7083;48.854;9.158;2022-09-09T11:54:48;15.70;99.90
14016;DHT22;7083;48.854;9.158;2022-09-09T11:57:25;15.70;99.90
14016;DHT22;7083;48.854;9.158;2022-09-09T11:59:54;15.70;99.90
14016;DHT22;7083;48.854;9.158;2022-09-09T12:02:23;15.80;99.90
14016;DHT22;7083;48.854;9.158;2022-09-09T12:04:58;15.90;99.90
14016;DHT22;7083;48.854;9.158;2022-09-09T12:07:32;16.00;99.90
14016;DHT22;7083;48.854;9.158;2022-09-09T12:10:04;16.10;99.90
14016;DHT22;7083;48.854;9.158;2022-09-09T12:12:33;16.20;99.90
14016;DHT22;7083;48.854;9.158;2022-09-09T12:15:18;16.40;99.90
14016;DHT22;7083;48.854;9.158;2022-09-09T12:17:47;16.70;99.90
14016;DHT22;7083;48.854;9.158;2022-09-09T12:20:18;17.00;99.90
14016;DHT22;7083;48.854;9.158;2022-09-09T12:25:48;17.20;99.90
14016;DHT22;7083;48.854;9.158;2022-09-09T12:28:21;17.30;99.90
14016;DHT22;7083;48.854;9.158;2022-09-09T12:30:57;17.30;99.90
14016;DHT22;7083;48.854;9.158;2022-09-09T12:33:34;17.30;99.90
14016;DHT22;7083;48.854;9.158;2022-09-09T12:36:03;17.40;99.90
14016;DHT22;7083;48.854;9.158;2022-09-09T12:38:34;17.40;99.90
14016;DHT22;7083;48.854;9.158;2022-09-09T12:41:02;18.10;99.90
14016;DHT22;7083;48.854;9.158;2022-09-09T12:43:29;17.30;99.90
14016;DHT22;7083;48.854;9.158;2022-09-09T12:45:58;17.10;99.90
14016;DHT22;7083;48.854;9.158;2022-09-09T12:48:31;17.00;99.90
14016;DHT22;7083;48.854;9.158;2022-09-09T12:50:59;16.90;99.90
14016;DHT22;7083;48.854;9.158;2022-09-09T12:53:31;16.90;99.90
14016;DHT22;7083;48.854;9.158;2022-09-09T12:56:01;17.00;99.90
14016;DHT22;7083;48.854;9.158;2022-09-09T12:58:30;17.10;99.90
14016;DHT22;7083;48.854;9.158;2022-09-09T13:00:58;17.10;99.90
14016;DHT22;7083;48.854;9.158;2022-09-09T13:03:26;17.10;99.90
14016;DHT22;7083;48.854;9.158;2022-09-09T13:05:57;17.00;99.90
14016;DHT22;7083;48.854;9.158;2022-09-09T13:08:25;17.00;99.90
14016;DHT22;7083;48.854;9.158;2022-09-09T13:10:57;17.10;99.90
14016;DHT22;7083;48.854;9.158;2022-09-09T13:13:27;16.90;99.90
14016;DHT22;7083;48.854;9.158;2022-09-09T13:15:56;16.70;99.90
14016;DHT22;7083;48.854;9.158;2022-09-09T13:18:29;16.70;99.90
14016;DHT22;7083;48.854;9.158;2022-09-09T13:20:57;17.00;99.90
14016;DHT22;7083;48.854;9.158;2022-09-09T13:23:26;17.20;99.90
14016;DHT22;7083;48.854;9.158;2022-09-09T13:25:56;17.50;99.90
14016;DHT22;7083;48.854;9.158;2022-09-09T13:28:25;17.50;99.90
14016;DHT22;7083;48.854;9.158;2022-09-09T13:31:00;17.70;99.90
14016;DHT22;7083;48.854;9.158;2022-09-09T13:33:31;18.40;99.90
14016;DHT22;7083;48.854;9.158;2022-09-09T13:36:01;19.50;99.90
14016;DHT22;7083;48.854;9.158;2022-09-09T13:38:31;20.50;99.90
14016;DHT22;7083;48.854;9.158;2022-09-09T13:41:01;21.40;97.20
14016;DHT22;7083;48.854;9.158;2022-09-09T13:43:31;21.80;95.80
14016;DHT22;7083;48.854;9.158;2022-09-09T13:46:23;21.50;91.60
14016;DHT22;7083;48.854;9.158;2022-09-09T13:48:54;20.10;95.30
14016;DHT22;7083;48.854;9.158;2022-09-09T13:51:29;20.10;94.60
14016;DHT22;7083;48.854;9.158;2022-09-09T13:53:56;19.40;97.50
14016;DHT22;7083;48.854;9.158;2022-09-09T13:56:27;19.10;99.30
14016;DHT22;7083;48.854;9.158;2022-09-09T13:58:54;18.90;99.90
14016;DHT22;7083;48.854;9.158;2022-09-09T14:01:21;18.80;99.90
14016;DHT22;7083;48.854;9.158;2022-09-09T14:03:48;19.50;98.40
14016;DHT22;7083;48.854;9.158;2022-09-09T14:06:16;20.70;98.00
14016;DHT22;7083;48.854;9.158;2022-09-09T14:08:44;21.90;93.30
14016;DHT22;7083;48.854;9.158;2022-09-09T14:11:12;23.60;82.30
14016;DHT22;7083;48.854;9.158;2022-09-09T14:13:40;22.70;78.30
14016;DHT22;7083;48.854;9.158;2022-09-09T14:16:07;22.00;79.90
14016;DHT22;7083;48.854;9.158;2022-09-09T14:18:35;21.90;78.40
14016;DHT22;7083;48.854;9.158;2022-09-09T14:21:03;21.80;77.60
14016;DHT22;7083;48.854;9.158;2022-09-09T14:23:30;22.40;79.20
14016;DHT22;7083;48.854;9.158;2022-09-09T14:25:57;22.70;73.40
14016;DHT22;7083;48.854;9.158;2022-09-09T14:28:24;23.10;73.10
14016;DHT22;7083;48.854;9.158;2022-09-09T14:30:52;23.30;72.00
14016;DHT22;7083;48.854;9.158;2022-09-09T14:33:19;23.40;70.40
14016;DHT22;7083;48.854;9.158;2022-09-09T14:35:46;23.50;69.30
14016;DHT22;7083;48.854;9.158;2022-09-09T14:38:14;24.00;70.30
14016;DHT22;7083;48.854;9.158;2022-09-09T14:40:40;24.10;66.40
14016;DHT22;7083;48.854;9.158;2022-09-09T14:43:10;23.30;67.30
14016;DHT22;7083;48.854;9.158;2022-09-09T14:45:37;22.70;72.00
14016;DHT22;7083;48.854;9.158;2022-09-09T14:48:05;23.50;71.70
14016;DHT22;7083;48.854;9.158;2022-09-09T14:50:32;25.30;65.30
14016;DHT22;7083;48.854;9.158;2022-09-09T14:53:00;26.70;62.10
14016;DHT22;7083;48.854;9.158;2022-09-09T14:55:26;28.40;57.30
14016;DHT22;7083;48.854;9.158;2022-09-09T14:57:54;29.20;55.70
14016;DHT22;7083;48.854;9.158;2022-09-09T15:00:21;29.50;54.10
14016;DHT22;7083;48.854;9.158;2022-09-09T15:02:47;28.80;54.00
14016;DHT22;7083;48.854;9.158;2022-09-09T15:05:19;28.90;55.60
14016;DHT22;7083;48.854;9.158;2022-09-09T15:07:46;28.70;54.10
14016;DHT22;7083;48.854;9.158;2022-09-09T15:10:14;27.90;55.70
14016;DHT22;7083;48.854;9.158;2022-09-09T15:12:42;26.70;56.90
14016;DHT22;7083;48.854;9.158;2022-09-09T15:15:09;25.60;57.70
14016;DHT22;7083;48.854;9.158;2022-09-09T15:17:36;24.70;60.30
14016;DHT22;7083;48.854;9.158;2022-09-09T15:20:03;23.90;60.70
14016;DHT22;7083;48.854;9.158;2022-09-09T15:22:32;23.20;63.10
14016;DHT22;7083;48.854;9.158;2022-09-09T15:25:01;22.70;65.10
14016;DHT22;7083;48.854;9.158;2022-09-09T15:27:28;22.30;65.40
14016;DHT22;7083;48.854;9.158;2022-09-09T15:29:56;21.90;66.20
14016;DHT22;7083;48.854;9.158;2022-09-09T15:32:23;21.60;66.20
14016;DHT22;7083;48.854;9.158;2022-09-09T15:34:50;21.50;67.80
14016;DHT22;7083;48.854;9.158;2022-09-09T15:37:18;21.20;68.10
14016;DHT22;7083;48.854;9.158;2022-09-09T15:39:46;21.20;68.70
14016;DHT22;7083;48.854;9.158;2022-09-09T15:42:13;21.20;69.30
14016;DHT22;7083;48.854;9.158;2022-09-09T15:44:40;21.20;70.10
14016;DHT22;7083;48.854;9.158;2022-09-09T15:47:10;21.10;69.60
14016;DHT22;7083;48.854;9.158;2022-09-09T15:49:38;21.00;71.20
14016;DHT22;7083;48.854;9.158;2022-09-09T15:52:05;20.90;73.20
14016;DHT22;7083;48.854;9.158;2022-09-09T15:54:33;21.10;73.00
14016;DHT22;7083;48.854;9.158;2022-09-09T15:57:03;20.50;72.90
14016;DHT22;7083;48.854;9.158;2022-09-09T15:59:32;20.40;72.20
14016;DHT22;7083;48.854;9.158;2022-09-09T16:01:59;20.30;72.60
14016;DHT22;7083;48.854;9.158;2022-09-09T16:04:27;20.20;73.40
14016;DHT22;7083;48.854;9.158;2022-09-09T16:06:56;20.10;74.00
14016;DHT22;7083;48.854;9.158;2022-09-09T16:09:24;19.60;73.50
14016;DHT22;7083;48.854;9.158;2022-09-09T16:11:51;20.00;74.40